Time;durP1;ratioP1;P1;durP2;ratioP2;P2;SDS_P1;SDS_P2;PMS_P1;PMS_P2;Temp;Humidity;BMP_temperature;BMP_pressure;BME280_temperature;BME280_humidity;BME280_pressure;Samples;Min_cycle;Max_cycle;Signal;HPM_P1;HPM_P2
2022/02/03 00:02:58;;;;;;;16.50;9.90;;;;;;;20.40;32.75;100174.96;101813;1340;61575;-87
2022/02/03 00:06:11;;;;;;;12.70;9.40;;;;;;;20.40;32.78;100173.33;101544;1346;73366;-84
2022/02/03 00:24:01;;;;;;;18.30;10.60;;;;;;;20.38;32.78;100196.00;100199;1363;73867;-80
2022/02/03 00:26:29;;;;;;;;;;;;;;;;;;;;;
2022/02/03 00:29:44;;;;;;;14.40;9.70;;;;;;;20.38;32.83;100203.48;100520;1355;62603;-87
2022/02/03 00:50:20;;;;;;;;;;;;;;;;;;;;;
2022/02/03 00:53:31;;;;;;;14.40;10.20;;;;;;;20.39;32.91;100191.78;100346;1360;61276;-86
2022/02/03 00:56:27;;;;;;;15.60;10.10;;;;;;;20.39;32.85;100185.02;100421;1357;61276;-82
2022/02/03 00:59:27;;;;;;;;;;;;;;;;;;;;;
2022/02/03 01:02:34;;;;;;;15.00;10.00;;;;;;;20.39;32.83;100187.17;101000;1354;75564;-86
2022/02/03 01:05:49;;;;;;;14.00;10.20;;;;;;;20.39;32.73;100190.92;100536;1358;61654;-88
2022/02/03 01:08:58;;;;;;;;;;;;;;;;;;;;;
2022/02/03 01:12:35;;;;;;;;;;;;;;;;;;;;;
2022/02/03 01:16:24;;;;;;;11.90;9.60;;;;;;;20.39;32.80;100200.23;101414;1343;74878;-84
2022/02/03 01:46:14;;;;;;;14.30;9.90;;;;;;;20.38;32.74;100212.80;102092;1337;61441;-87
2022/02/03 01:52:49;;;;;;;17.40;10.00;;;;;;;20.38;32.76;100216.70;102691;1325;71604;-84
2022/02/03 01:55:52;;;;;;;14.40;10.50;;;;;;;20.38;32.70;100223.48;102455;1331;76176;-86
2022/02/03 01:58:59;;;;;;;12.50;9.20;;;;;;;20.38;32.81;100225.61;102555;1330;61528;-84
2022/02/03 02:01:51;;;;;;;14.70;10.50;;;;;;;20.38;32.76;100226.89;102518;1331;61701;-84
2022/02/03 02:05:30;;;;;;;14.10;10.30;;;;;;;20.38;32.74;100226.91;102424;1331;75994;-85
2022/02/03 02:08:56;;;;;;;17.90;10.50;;;;;;;20.38;32.72;100228.52;102406;1332;74897;-82
2022/02/03 02:12:16;;;;;;;15.50;10.00;;;;;;;20.38;32.73;100227.98;102085;1338;61839;-88
2022/02/03 02:41:00;;;;;;;;;;;;;;;;;;;;;
2022/02/03 02:44:02;;;;;;;13.40;9.80;;;;;;;20.36;32.64;100288.54;99725;1368;61490;-83
2022/02/03 02:47:26;;;;;;;13.00;9.20;;;;;;;20.36;32.63;100290.30;99598;1370;73045;-85
2022/02/03 03:01:52;;;;;;;16.90;10.40;;;;;;;20.37;32.59;100306.18;99636;1367;73470;-83
2022/02/03 03:30:37;;;;;;;;;;;;;;;;;;;;;
2022/02/03 03:33:53;;;;;;;;;;;;;;;;;;;;;
2022/02/03 03:37:04;;;;;;;16.00;11.40;;;;;;;20.37;32.56;100359.07;100375;1361;61346;-81
2022/02/03 03:39:56;;;;;;;14.90;10.90;;;;;;;20.38;32.56;100367.08;100007;1364;61316;-85
2022/02/03 03:42:47;;;;;;;16.50;11.60;;;;;;;20.38;32.58;100374.71;100356;1361;73938;-84
2022/02/03 03:45:46;;;;;;;13.70;10.60;;;;;;;20.38;32.54;100382.20;100555;1354;76054;-85
2022/02/03 03:48:52;;;;;;;19.30;11.70;;;;;;;20.38;32.49;100384.71;100508;1361;61263;-86
2022/02/03 03:52:38;;;;;;;;;;;;;;;;;;;;;
2022/02/03 04:00:39;;;;;;;15.80;10.60;;;;;;;20.37;32.59;100398.89;100118;1363;74971;-85
2022/02/03 04:38:43;;;;;;;16.60;11.30;;;;;;;20.36;32.49;100452.46;101182;1352;73006;-84
2022/02/03 05:03:55;;;;;;;18.30;11.90;;;;;;;20.36;32.58;100486.23;100053;1364;61511;-84
2022/02/03 05:20:04;;;;;;;20.50;13.90;;;;;;;20.36;32.43;100507.64;100354;1356;61352;-82
2022/02/03 05:34:11;;;;;;;46.80;28.80;;;;;;;20.16;31.76;100567.36;100051;1365;62405;-82
2022/02/03 05:44:54;;;;;;;39.20;25.90;;;;;;;19.94;30.59;100608.58;100550;1358;61356;-82
2022/02/03 05:47:45;;;;;;;42.50;27.30;;;;;;;19.89;30.32;100623.34;100146;1361;61249;-81
2022/02/03 06:05:05;;;;;;;50.60;28.90;;;;;;;19.58;28.70;100678.45;101734;1340;74889;-80
2022/02/03 06:07:59;;;;;;;46.50;26.40;;;;;;;19.54;28.61;100680.86;102081;1334;59738;-82
2022/02/03 06:13:16;;;;;;;52.00;27.80;;;;;;;19.57;28.58;100691.36;102917;1322;74012;-83
2022/02/03 06:24:51;;;;;;;48.10;26.10;;;;;;;19.74;28.21;100712.75;104418;1306;75116;-83
2022/02/03 06:30:01;;;;;;;39.50;23.60;;;;;;;19.83;28.30;100718.39;104299;1308;61390;-79
2022/02/03 06:32:43;;;;;;;41.80;23.50;;;;;;;19.88;28.19;100727.91;104218;1308;61297;-80
2022/02/03 06:35:20;;;;;;;42.70;23.40;;;;;;;19.92;28.46;100732.41;104398;1307;73132;-81
2022/02/03 06:38:16;;;;;;;40.90;23.90;;;;;;;19.96;28.44;100735.04;104206;1308;76003;-80
2022/02/03 06:40:44;;;;;;;45.00;24.10;;;;;;;19.99;28.59;100738.94;104312;1308;61289;-81
2022/02/03 06:43:19;;;;;;;42.70;24.40;;;;;;;20.02;28.50;100733.19;104285;1307;61187;-81
2022/02/03 06:46:08;;;;;;;42.50;23.90;;;;;;;20.05;28.76;100733.88;104223;1308;72697;-83
2022/02/03 06:49:16;;;;;;;38.30;23.80;;;;;;;20.08;28.73;100734.73;104265;1308;73795;-80
2022/02/03 06:52:11;;;;;;;37.10;23.30;;;;;;;20.11;28.93;100742.25;104303;1307;61336;-82
2022/02/03 06:55:00;;;;;;;38.00;24.90;;;;;;;20.14;28.91;100746.52;104112;1307;61457;-82
2022/02/03 06:57:33;;;;;;;62.20;33.40;;;;;;;20.12;28.86;100747.38;104044;1306;72971;-79
2022/02/03 07:00:01;;;;;;;51.90;29.10;;;;;;;19.96;28.60;100750.25;104740;1306;75018;-80
2022/02/03 07:02:30;;;;;;;53.00;27.60;;;;;;;19.83;28.81;100750.40;103944;1308;61823;-81
2022/02/03 07:04:58;;;;;;;51.60;28.80;;;;;;;19.78;29.01;100751.55;104191;1308;61607;-81
2022/02/03 07:07:25;;;;;;;63.40;28.80;;;;;;;19.79;29.09;100749.40;104111;1309;72707;-81
2022/02/03 07:09:53;;;;;;;;;;;;;;;19.79;29.01;100753.27;104339;1308;74678;-81
2022/02/03 07:12:20;;;;;;;53.30;27.40;;;;;;;19.79;29.15;100752.73;104260;1308;61129;-82
2022/02/03 07:14:46;;;;;;;47.50;26.60;;;;;;;19.84;29.17;100757.47;104336;1308;61515;-80
2022/02/03 07:17:14;;;;;;;49.80;26.40;;;;;;;19.90;29.42;100760.05;104234;1308;61398;-80
2022/02/03 07:19:54;;;;;;;46.30;24.10;;;;;;;19.97;29.64;100757.32;104182;1308;76367;-80
2022/02/03 07:22:20;;;;;;;38.20;24.90;;;;;;;20.02;29.62;100757.31;104108;1306;61270;-83
2022/02/03 07:24:51;;;;;;;42.80;24.10;;;;;;;20.07;29.69;100755.75;104231;1308;61295;-81
2022/02/03 07:27:38;;;;;;;44.00;24.10;;;;;;;20.12;29.72;100756.88;104160;1307;73386;-82
2022/02/03 07:30:10;;;;;;;47.20;25.10;;;;;;;20.15;29.75;100763.98;104140;1307;73067;-82
2022/02/03 07:32:45;;;;;;;45.90;24.00;;;;;;;20.17;29.72;100766.87;103830;1311;61287;-81
2022/02/03 07:35:11;;;;;;;43.20;24.50;;;;;;;20.20;29.79;100770.40;103903;1311;61770;-80
2022/02/03 07:38:08;;;;;;;40.90;24.20;;;;;;;20.23;29.91;100768.43;103916;1310;61536;-82
2022/02/03 07:40:34;;;;;;;40.00;23.40;;;;;;;20.26;30.04;100773.55;103421;1319;74759;-80
2022/02/03 07:43:05;;;;;;;38.00;23.70;;;;;;;20.29;30.16;100782.82;103250;1319;61339;-81
2022/02/03 07:45:40;;;;;;;41.30;24.00;;;;;;;20.32;30.23;100788.34;103396;1319;61884;-81
2022/02/03 07:48:05;;;;;;;39.60;22.80;;;;;;;20.35;30.28;100790.52;103358;1318;61297;-83
2022/02/03 07:50:40;;;;;;;43.10;23.80;;;;;;;20.37;30.35;100792.14;102894;1319;61339;-80
2022/02/03 07:53:09;;;;;;;49.40;29.80;;;;;;;20.37;30.35;100793.02;103523;1317;61293;-79
2022/02/03 07:55:35;;;;;;;42.90;27.60;;;;;;;20.29;30.17;100795.01;103470;1319;60635;-81
2022/02/03 07:58:03;;;;;;;44.00;27.10;;;;;;;20.20;30.15;100790.06;103204;1319;61332;-81
2022/02/03 08:00:28;;;;;;;56.70;30.80;;;;;;;20.13;30.12;100793.56;103027;1319;75941;-80
2022/02/03 08:02:54;;;;;;;46.40;29.40;;;;;;;20.07;30.39;100792.70;103095;1319;61528;-80
2022/02/03 08:05:28;;;;;;;47.10;31.40;;;;;;;20.04;30.37;100797.38;103119;1319;61916;-82
2022/02/03 08:08:11;;;;;;;49.90;30.30;;;;;;;20.04;30.28;100797.02;103202;1318;72823;-81
2022/02/03 08:10:42;;;;;;;48.20;30.10;;;;;;;20.06;30.35;100801.56;103630;1312;74715;-80
2022/02/03 08:13:12;;;;;;;43.30;28.70;;;;;;;20.08;30.32;100801.42;103782;1314;60263;-80
2022/02/03 08:15:40;;;;;;;46.10;29.90;;;;;;;20.11;30.41;100807.13;103635;1313;59524;-81
2022/02/03 08:18:19;;;;;;;42.40;28.20;;;;;;;20.13;30.36;100810.55;104366;1305;72878;-81
2022/02/03 08:21:02;;;;;;;42.70;29.10;;;;;;;20.16;30.30;100809.62;104300;1305;74238;-81
2022/02/03 08:24:12;;;;;;;39.20;25.70;;;;;;;20.17;30.46;100815.83;104311;1305;61584;-81
2022/02/03 08:32:22;;;;;;;32.40;20.70;;;;;;;20.14;29.80;100826.77;103913;1313;74800;-80
2022/02/03 08:37:22;;;;;;;27.90;19.20;;;;;;;20.16;29.47;100836.08;104043;1313;61275;-81
2022/02/03 08:40:09;;;;;;;31.00;19.80;;;;;;;20.17;29.24;100840.98;103750;1313;72681;-83
2022/02/03 08:42:45;;;;;;;26.90;17.10;;;;;;;20.19;29.10;100841.41;103991;1313;74867;-80
2022/02/03 08:45:10;;;;;;;20.80;15.00;;;;;;;20.19;29.02;100842.83;103891;1313;61138;-86
2022/02/03 08:47:36;;;;;;;25.30;14.30;;;;;;;20.19;28.79;100847.16;103861;1314;61300;-80
2022/02/03 08:50:02;;;;;;;21.10;13.90;;;;;;;20.19;28.63;100848.77;103944;1314;59499;-81
2022/02/03 08:53:07;;;;;;;22.00;13.90;;;;;;;20.20;28.40;100852.44;103948;1313;61510;-81
2022/02/03 08:58:39;;;;;;;28.20;15.60;;;;;;;20.03;28.27;100867.85;103695;1313;61453;-82
2022/02/03 09:35:36;;;;;;;;;;;;;;;;;;;;;
2022/02/03 09:57:40;;;;;;;20.00;10.70;;;;;;;19.46;27.43;100888.23;103567;1316;74248;-81
2022/02/03 10:00:34;;;;;;;20.10;10.60;;;;;;;19.28;27.23;100888.82;103452;1316;74903;-83
2022/02/03 10:03:04;;;;;;;20.00;10.80;;;;;;;19.19;27.29;100884.90;103809;1316;61570;-81
2022/02/03 10:05:37;;;;;;;16.40;10.20;;;;;;;19.22;27.52;100884.04;103596;1316;61866;-80
2022/02/03 10:08:03;;;;;;;21.40;9.00;;;;;;;19.26;27.49;100881.09;103827;1314;73412;-81
2022/02/03 10:10:30;;;;;;;14.20;10.20;;;;;;;19.28;27.60;100879.02;103972;1313;59404;-80
2022/02/03 10:12:56;;;;;;;15.60;9.30;;;;;;;19.31;27.50;100882.04;103744;1313;61204;-81
2022/02/03 10:15:23;;;;;;;16.00;8.90;;;;;;;19.33;27.53;100882.44;103776;1313;351304;-81
2022/02/03 10:17:58;;;;;;;14.60;8.60;;;;;;;19.37;27.41;100881.49;103836;1313;61348;-82
2022/02/03 10:20:30;;;;;;;14.70;8.00;;;;;;;19.42;27.35;100880.82;103834;1313;74692;-81
2022/02/03 10:23:24;;;;;;;13.70;7.00;;;;;;;19.47;27.17;100885.52;104512;1313;60641;-81
2022/02/03 10:25:55;;;;;;;17.10;6.60;;;;;;;19.53;27.03;100889.58;103541;1317;61214;-81
2022/02/03 10:28:22;;;;;;;9.40;6.00;;;;;;;19.59;26.93;100893.14;103645;1317;71266;-82
2022/02/03 10:30:51;;;;;;;11.80;5.30;;;;;;;19.64;26.85;100894.27;104036;1319;59568;-82
2022/02/03 10:33:19;;;;;;;10.60;5.60;;;;;;;19.68;26.78;100896.69;104974;1313;61545;-81
2022/02/03 10:35:50;;;;;;;9.80;5.60;;;;;;;19.73;26.67;100892.96;104723;1313;61399;-82
2022/02/03 11:03:21;;;;;;;10.50;5.40;;;;;;;19.31;26.86;100913.26;103409;1317;75744;-81
2022/02/03 11:06:18;;;;;;;;;;;;;;;;;;;;;
2022/02/03 11:09:12;;;;;;;13.30;5.80;;;;;;;19.26;26.84;100917.50;103497;1317;61523;-80
2022/02/03 11:11:56;;;;;;;15.00;6.30;;;;;;;19.29;26.98;100918.58;103569;1316;72896;-80
2022/02/03 11:14:23;;;;;;;11.30;5.50;;;;;;;19.34;27.05;100912.55;103130;1323;74569;-81
2022/02/03 11:16:49;;;;;;;11.80;5.90;;;;;;;19.41;27.16;100909.09;103557;1322;61305;-81
2022/02/03 11:19:16;;;;;;;15.30;6.00;;;;;;;19.49;27.22;100906.63;103026;1322;61839;-81
2022/02/03 11:22:02;;;;;;;11.10;5.90;;;;;;;19.56;27.34;100912.98;103074;1321;72860;-81
2022/02/03 11:24:32;;;;;;;17.30;6.10;;;;;;;19.62;27.29;100910.80;103040;1322;75102;-79
2022/02/03 11:38:10;;;;;;;18.70;10.00;;;;;;;19.90;27.97;100909.59;102164;1334;61428;-81
2022/02/03 11:41:20;;;;;;;;;;;;;;;;;;;;;
2022/02/03 11:45:10;;;;;;;29.10;11.20;;;;;;;19.86;27.75;100913.77;102496;1328;73982;-80
2022/02/03 12:01:26;;;;;;;;;;;;;;;;;;;;;
2022/02/03 12:12:37;;;;;;;13.90;9.10;;;;;;;19.71;27.23;100918.09;104609;1313;59692;-80
2022/02/03 12:21:04;;;;;;;14.70;8.90;;;;;;;19.80;27.16;100922.20;104201;1305;75009;-78
2022/02/03 12:23:57;;;;;;;14.20;8.40;;;;;;;19.79;27.13;100927.41;104102;1307;61335;-80
2022/02/03 12:26:34;;;;;;;14.40;8.30;;;;;;;19.80;27.12;100928.96;104715;1305;61197;-80
2022/02/03 12:29:07;;;;;;;16.10;8.50;;;;;;;19.81;27.16;100925.55;104496;1305;73670;-80
2022/02/03 12:37:13;;;;;;;20.60;8.20;;;;;;;19.86;27.11;100933.92;104014;1311;61202;-82
2022/02/03 12:40:12;;;;;;;;;;;;;;;;;;;;;
2022/02/03 12:42:52;;;;;;;17.50;8.40;;;;;;;19.85;27.65;100937.23;104115;1311;74632;-81
2022/02/03 12:45:27;;;;;;;17.50;8.80;;;;;;;19.83;27.61;100939.00;103769;1311;62572;-81
2022/02/03 12:48:01;;;;;;;13.90;8.70;;;;;;;19.73;27.45;100942.43;104703;1311;61513;-79
2022/02/03 12:50:33;;;;;;;17.50;8.10;;;;;;;19.67;27.37;100940.30;104796;1311;72797;-79
2022/02/03 12:52:59;;;;;;;16.20;8.40;;;;;;;19.65;27.58;100944.20;104721;1313;76065;-80
2022/02/03 12:55:35;;;;;;;14.10;8.40;;;;;;;19.64;27.58;100941.97;104914;1311;59384;-80
2022/02/03 12:58:04;;;;;;;13.70;8.20;;;;;;;19.62;27.46;100944.54;104963;1311;61509;-80
2022/02/03 13:00:41;;;;;;;11.50;8.00;;;;;;;19.60;27.47;100945.55;104964;1311;73921;-80
2022/02/03 13:03:09;;;;;;;13.10;8.30;;;;;;;19.59;27.39;100948.30;104643;1312;74481;-80
2022/02/03 13:05:36;;;;;;;12.70;8.50;;;;;;;19.58;27.19;100951.23;104070;1312;61221;-80
2022/02/03 13:08:05;;;;;;;11.70;7.60;;;;;;;19.55;27.03;100953.16;104784;1311;61539;-79
2022/02/03 13:10:40;;;;;;;13.30;7.50;;;;;;;19.55;27.13;100953.89;104203;1311;73636;-81
2022/02/03 13:13:32;;;;;;;13.00;7.60;;;;;;;19.55;27.21;100959.24;104270;1308;75705;-81
2022/02/03 13:15:58;;;;;;;17.80;8.30;;;;;;;19.55;27.06;100964.98;104502;1305;61506;-80
2022/02/03 13:18:49;;;;;;;16.20;8.10;;;;;;;19.55;27.26;100961.02;104195;1308;61300;-82
2022/02/03 13:28:05;;;;;;;13.30;6.70;;;;;;;19.62;27.00;100968.83;104410;1308;61173;-83
2022/02/03 13:30:57;;;;;;;10.10;6.40;;;;;;;19.66;27.01;100974.84;104048;1311;61291;-81
2022/02/03 13:34:07;;;;;;;13.50;6.70;;;;;;;19.70;27.02;100980.48;104099;1311;72812;-83
2022/02/03 13:37:15;;;;;;;12.40;6.90;;;;;;;19.73;26.89;100984.55;104128;1311;74758;-82
2022/02/03 13:40:12;;;;;;;16.10;6.80;;;;;;;19.77;26.98;100988.05;104238;1311;61227;-87
2022/02/03 13:42:56;;;;;;;14.10;6.80;;;;;;;19.81;26.99;100990.02;104091;1314;61811;-84
2022/02/03 13:45:49;;;;;;;12.60;6.10;;;;;;;19.82;26.88;100990.09;104064;1311;73699;-79
2022/02/03 13:48:49;;;;;;;9.80;6.60;;;;;;;19.85;26.95;100991.15;104189;1311;75747;-85
2022/02/03 13:51:34;;;;;;;13.80;6.40;;;;;;;19.87;27.00;100984.77;103596;1319;61149;-81
2022/02/03 13:55:07;;;;;;;;;;;;;;;;;;;;;
2022/02/03 14:21:23;;;;;;;11.10;6.10;;;;;;;20.03;26.72;100997.02;102186;1334;73048;-82
2022/02/03 14:29:38;;;;;;;12.30;6.40;;;;;;;20.07;26.92;100997.48;102440;1329;61599;-81
2022/02/03 14:32:26;;;;;;;;;;;;;;;;;;;;;
2022/02/03 14:35:50;;;;;;;10.10;6.30;;;;;;;20.08;26.96;100998.64;102444;1329;73599;-84
2022/02/03 14:38:46;;;;;;;10.30;6.20;;;;;;;20.10;26.99;100998.55;102553;1329;61456;-88
2022/02/03 14:41:53;;;;;;;;;;;;;;;;;;;;;
2022/02/03 14:44:31;;;;;;;9.30;6.50;;;;;;;20.12;27.28;101004.85;102780;1325;74243;-83
2022/02/03 14:47:22;;;;;;;11.40;5.80;;;;;;;20.13;27.26;101006.54;102826;1326;75933;-85
2022/02/03 14:50:09;;;;;;;9.70;6.10;;;;;;;20.14;27.42;101005.08;102956;1326;61573;-82
2022/02/03 14:53:19;;;;;;;10.60;5.80;;;;;;;20.14;27.52;101008.45;102809;1323;61147;-89
2022/02/03 14:59:26;;;;;;;7.60;5.80;;;;;;;20.15;27.79;101016.61;102845;1324;73463;-86
2022/02/03 15:02:37;;;;;;;9.30;5.40;;;;;;;20.16;27.96;101019.77;102961;1325;61315;-87
2022/02/03 15:05:29;;;;;;;15.10;6.20;;;;;;;20.17;28.00;101023.63;102977;1326;61231;-87
2022/02/03 15:08:13;;;;;;;10.50;5.80;;;;;;;20.17;28.16;101030.60;102846;1326;71741;-85
2022/02/03 15:14:06;;;;;;;8.20;5.10;;;;;;;20.19;28.30;101034.23;102862;1326;61169;-85
2022/02/03 15:17:12;;;;;;;9.30;5.40;;;;;;;20.19;28.31;101035.29;103018;1325;61140;-80
2022/02/03 15:20:00;;;;;;;8.40;5.70;;;;;;;20.19;28.47;101042.81;102741;1325;72861;-83
2022/02/03 15:23:08;;;;;;;8.40;5.30;;;;;;;20.20;28.54;101052.39;102815;1325;75746;-83
2022/02/03 15:25:46;;;;;;;11.70;5.60;;;;;;;20.21;28.65;101058.98;102644;1325;61171;-84
2022/02/03 15:28:23;;;;;;;;;;;;;;;;;;;;;
2022/02/03 15:31:00;;;;;;;8.00;5.30;;;;;;;20.22;28.79;101052.47;103714;1318;73214;-89
2022/02/03 15:34:21;;;;;;;;;;;;;;;;;;;;;
2022/02/03 15:37:44;;;;;;;8.60;5.00;;;;;;;20.21;28.93;101052.30;103532;1317;61521;-84
2022/02/03 15:40:40;;;;;;;8.70;5.10;;;;;;;20.22;28.98;101059.03;103731;1317;61814;-83
2022/02/03 15:43:37;;;;;;;8.80;4.80;;;;;;;20.23;29.00;101069.54;102729;1329;72804;-85
2022/02/03 15:46:32;;;;;;;7.40;4.60;;;;;;;20.23;29.06;101076.30;102699;1328;74078;-85
2022/02/03 16:18:33;;;;;;;8.90;5.50;;;;;;;20.24;29.75;101126.64;100381;1360;61595;-86
2022/02/03 16:21:35;;;;;;;7.00;4.90;;;;;;;20.25;29.57;101128.57;100903;1354;73012;-84
2022/02/03 16:24:17;;;;;;;9.70;5.00;;;;;;;20.25;29.71;101139.63;101223;1352;75079;-84
2022/02/03 16:53:19;;;;;;;9.10;4.60;;;;;;;20.25;30.13;101183.05;102183;1334;61231;-82
2022/02/03 16:56:48;;;;;;;7.50;5.00;;;;;;;20.25;30.13;101180.55;102645;1328;59325;-84
2022/02/03 16:59:40;;;;;;;8.80;5.30;;;;;;;20.26;30.16;101183.56;103217;1322;73224;-86
2022/02/03 17:02:10;;;;;;;8.70;5.10;;;;;;;20.26;30.13;101183.55;103081;1322;74714;-86
2022/02/03 17:05:07;;;;;;;6.80;4.80;;;;;;;20.27;30.23;101186.70;103235;1322;61512;-82
2022/02/03 17:08:14;;;;;;;8.20;4.60;;;;;;;20.27;30.30;101192.98;103036;1322;61369;-84
2022/02/03 17:10:59;;;;;;;7.60;5.10;;;;;;;20.26;30.28;101196.96;102944;1319;72967;-84
2022/02/03 17:13:53;;;;;;;10.70;5.40;;;;;;;20.26;30.26;101198.39;103380;1320;74838;-83
2022/02/03 17:16:39;;;;;;;7.80;4.90;;;;;;;20.27;30.29;101210.15;103128;1323;61634;-86
2022/02/03 17:19:38;;;;;;;;;;;;;;;;;;;;;
2022/02/03 17:22:21;;;;;;;9.50;5.60;;;;;;;20.27;30.29;101228.02;102945;1325;73674;-90
2022/02/03 17:28:44;;;;;;;7.80;5.30;;;;;;;20.27;30.34;101241.42;102549;1331;61493;-87
2022/02/03 18:03:35;;;;;;;7.30;5.20;;;;;;;20.25;30.64;101288.71;102286;1333;74666;-85
2022/02/03 18:09:27;;;;;;;8.10;4.90;;;;;;;20.25;30.87;101302.27;102481;1331;61513;-90
2022/02/03 18:30:31;;;;;;;;;;;;;;;;;;;;;
2022/02/03 18:53:21;;;;;;;7.30;5.10;;;;;;;20.29;31.20;101323.73;102472;1328;74948;-82
2022/02/03 18:55:12;;;;;;;9.30;5.30;;;;;;;20.29;31.30;101324.23;102697;1326;61310;-85
2022/02/03 18:58:06;;;;;;;8.00;5.20;;;;;;;20.29;31.17;101327.28;103012;1319;61420;-81
2022/02/03 19:23:32;;;;;;;6.70;4.60;;;;;;;20.29;31.38;101340.70;103224;1321;61372;-84
2022/02/03 19:56:21;;;;;;;7.50;4.80;;;;;;;20.29;31.37;101346.23;103163;1323;73675;-80
2022/02/03 20:12:20;;;;;;;7.80;4.40;;;;;;;20.29;31.44;101375.91;104580;1306;61321;-82
2022/02/03 20:14:58;;;;;;;7.30;4.70;;;;;;;20.28;31.57;101374.50;104644;1306;73970;-85
2022/02/03 20:18:14;;;;;;;8.00;4.40;;;;;;;20.29;31.57;101376.08;104652;1306;76217;-83
2022/02/03 20:21:00;;;;;;;;;;;;;;;;;;;;;
2022/02/03 20:23:39;;;;;;;7.50;4.40;;;;;;;20.29;31.60;101375.17;104704;1306;61516;-85
2022/02/03 20:26:16;;;;;;;7.30;4.80;;;;;;;20.29;31.55;101379.09;104500;1307;73244;-85
2022/02/03 20:29:05;;;;;;;;;;;;;;;20.29;31.40;101377.27;104704;1306;75675;-88
2022/02/03 20:31:53;;;;;;;7.30;4.70;;;;;;;20.27;31.53;101377.61;104584;1306;61745;-85
2022/02/03 20:34:42;;;;;;;6.60;4.70;;;;;;;20.28;31.58;101379.73;104503;1308;61613;-85
2022/02/03 20:37:18;;;;;;;6.10;4.00;;;;;;;20.28;31.50;101378.45;104542;1306;73982;-85
2022/02/03 20:39:52;;;;;;;6.90;4.20;;;;;;;20.28;31.48;101379.52;104607;1307;75659;-84
2022/02/03 20:42:31;;;;;;;6.30;4.20;;;;;;;20.28;31.54;101379.16;104548;1306;61214;-83
2022/02/03 20:45:19;;;;;;;6.90;4.30;;;;;;;20.28;31.52;101384.70;104673;1307;61845;-83
2022/02/03 20:48:35;;;;;;;;;;;;;;;;;;;;;
2022/02/03 20:51:15;;;;;;;7.40;4.60;;;;;;;20.29;31.53;101388.40;103358;1319;74939;-86
2022/02/03 20:54:24;;;;;;;6.10;4.20;;;;;;;20.29;31.52;101391.63;103311;1319;61180;-81
2022/02/03 20:57:18;;;;;;;6.00;4.20;;;;;;;20.29;31.49;101391.07;102757;1328;61231;-84
2022/02/03 21:00:37;;;;;;;6.10;4.40;;;;;;;20.29;31.45;101394.83;102735;1326;72966;-89
2022/02/03 21:03:29;;;;;;;8.60;4.80;;;;;;;20.29;31.47;101392.67;101922;1337;74818;-87
2022/02/03 21:06:16;;;;;;;6.60;4.40;;;;;;;20.29;31.50;101397.13;101910;1337;61696;-84
2022/02/03 21:09:17;;;;;;;6.00;3.90;;;;;;;20.30;31.44;101401.95;101906;1337;61355;-79
2022/02/03 21:11:50;;;;;;;6.70;4.10;;;;;;;20.30;31.54;101402.99;101902;1337;72337;-81
2022/02/03 21:14:33;;;;;;;7.00;4.30;;;;;;;20.30;31.51;101407.30;101877;1337;76086;-82
2022/02/03 21:17:20;;;;;;;7.30;4.20;;;;;;;20.30;31.42;101408.52;101915;1337;61555;-86
2022/02/03 21:20:15;;;;;;;6.60;3.90;;;;;;;20.31;31.44;101413.33;101941;1337;61237;-86
2022/02/03 21:23:05;;;;;;;6.30;4.40;;;;;;;20.30;31.37;101413.73;101883;1340;73586;-89
2022/02/03 21:25:44;;;;;;;6.10;4.40;;;;;;;20.31;31.46;101415.83;102179;1331;74954;-82
2022/02/03 21:28:35;;;;;;;6.20;4.20;;;;;;;20.31;31.48;101421.54;102575;1326;61329;-88
2022/02/03 21:31:04;;;;;;;7.60;3.60;;;;;;;20.30;31.49;101418.52;102764;1326;61115;-82
2022/02/03 21:33:59;;;;;;;6.00;4.10;;;;;;;20.30;31.49;101419.06;102948;1319;71674;-85
2022/02/03 21:36:33;;;;;;;5.30;3.90;;;;;;;20.30;31.52;101420.70;103418;1319;75017;-83
2022/02/03 21:39:16;;;;;;;;;;;;;;;;;;;;;
2022/02/03 21:42:09;;;;;;;6.60;4.00;;;;;;;20.30;31.57;101428.91;104462;1308;62087;-83
2022/02/03 21:44:55;;;;;;;6.40;4.20;;;;;;;20.30;31.55;101432.29;104347;1311;73939;-88
2022/02/03 21:47:51;;;;;;;6.40;4.10;;;;;;;20.30;31.47;101436.43;104229;1311;74763;-82
2022/02/03 21:50:42;;;;;;;6.60;4.10;;;;;;;20.30;31.56;101439.64;104054;1315;61335;-81
2022/02/03 21:53:30;;;;;;;6.40;4.10;;;;;;;20.31;31.37;101442.48;103742;1316;61198;-82
2022/02/03 21:56:25;;;;;;;6.90;4.20;;;;;;;20.30;31.42;101443.20;103889;1316;72492;-84
2022/02/03 21:59:12;;;;;;;5.10;3.60;;;;;;;20.31;31.41;101441.73;103923;1316;74739;-84
2022/02/03 22:01:58;;;;;;;5.90;3.80;;;;;;;20.31;31.38;101437.80;103659;1317;61725;-84
2022/02/03 22:04:35;;;;;;;6.70;3.80;;;;;;;20.31;31.40;101439.42;103346;1318;61280;-81
2022/02/03 22:07:47;;;;;;;7.90;3.90;;;;;;;20.31;31.46;101432.82;103665;1316;73041;-84
2022/02/03 22:10:37;;;;;;;5.30;3.80;;;;;;;20.30;31.40;101441.60;102693;1325;74788;-87
2022/02/03 22:13:04;;;;;;;5.60;3.90;;;;;;;20.30;31.38;101446.24;102744;1325;61308;-89
2022/02/03 22:16:07;;;;;;;6.00;3.90;;;;;;;20.30;31.41;101446.41;99562;1334;3649281;-86
2022/02/03 22:18:44;;;;;;;6.20;3.70;;;;;;;20.31;31.36;101449.25;102245;1335;73310;-84
2022/02/03 22:24:48;;;;;;;5.20;3.20;;;;;;;20.30;31.49;101448.04;101863;1339;63081;-87
2022/02/03 22:40:30;;;;;;;;;;;;;;;;;;;;;
2022/02/03 22:46:02;;;;;;;6.70;3.70;;;;;;;20.29;31.33;101454.32;101828;1341;76740;-85
2022/02/03 22:49:00;;;;;;;6.10;3.80;;;;;;;20.30;31.31;101447.35;102025;1337;61316;-86
2022/02/03 22:51:32;;;;;;;6.10;3.90;;;;;;;20.30;31.33;101447.52;102015;1337;61350;-84
2022/02/03 22:54:11;;;;;;;;;;;;;;;;;;;;;
2022/02/03 22:57:02;;;;;;;6.70;3.60;;;;;;;20.30;31.39;101444.10;102322;1332;74826;-87
2022/02/03 23:00:10;;;;;;;5.10;3.60;;;;;;;20.30;31.41;101448.39;102677;1326;61977;-86
2022/02/03 23:03:04;;;;;;;5.40;3.60;;;;;;;20.30;31.39;101447.35;102776;1325;61547;-89
2022/02/03 23:05:38;;;;;;;6.50;4.00;;;;;;;20.30;31.33;101444.46;102944;1317;71690;-89
2022/02/03 23:08:26;;;;;;;5.90;3.60;;;;;;;20.30;31.45;101447.31;103654;1317;74862;-82
2022/02/03 23:14:26;;;;;;;5.90;3.80;;;;;;;20.30;31.42;101463.42;103975;1317;61349;-84
2022/02/03 23:17:08;;;;;;;5.20;3.50;;;;;;;20.30;31.34;101459.84;103766;1317;73901;-83
2022/02/03 23:23:10;;;;;;;5.50;3.60;;;;;;;20.29;31.34;101455.24;104226;1313;61290;-86
2022/02/03 23:25:58;;;;;;;6.10;3.70;;;;;;;20.30;31.31;101460.72;104182;1313;61531;-88
2022/02/03 23:28:36;;;;;;;6.50;3.70;;;;;;;20.30;31.40;101467.86;103353;1318;72848;-82
2022/02/03 23:31:24;;;;;;;6.10;4.00;;;;;;;20.30;31.39;101473.59;103449;1319;74735;-80
2022/02/03 23:34:22;;;;;;;5.00;3.40;;;;;;;20.30;31.31;101478.61;103302;1319;61163;-84
2022/02/03 23:37:36;;;;;;;6.30;3.80;;;;;;;20.30;31.39;101476.45;102945;1325;61173;-88
2022/02/03 23:40:14;;;;;;;6.20;3.70;;;;;;;20.30;31.34;101477.20;102788;1324;73953;-84
